sensor_id;sensor_type;location;lat;lon;timestamp;temperature;humidity
58447;DHT22;44240;51.840;7.258;2022-07-05T00:00:18;18.50;82.30
58447;DHT22;44240;51.840;7.258;2022-07-05T00:02:43;18.50;82.70
58447;DHT22;44240;51.840;7.258;2022-07-05T00:05:09;18.50;83.00
58447;DHT22;44240;51.840;7.258;2022-07-05T00:07:34;18.50;83.20
58447;DHT22;44240;51.840;7.258;2022-07-05T00:10:00;18.50;83.40
58447;DHT22;44240;51.840;7.258;2022-07-05T00:12:29;18.50;83.60
58447;DHT22;44240;51.840;7.258;2022-07-05T00:14:55;18.40;83.90
58447;DHT22;44240;51.840;7.258;2022-07-05T00:17:21;18.40;84.10
58447;DHT22;44240;51.840;7.258;2022-07-05T00:19:46;18.30;84.40
58447;DHT22;44240;51.840;7.258;2022-07-05T00:22:12;18.30;84.70
58447;DHT22;44240;51.840;7.258;2022-07-05T00:24:38;18.30;84.70
58447;DHT22;44240;51.840;7.258;2022-07-05T00:27:03;18.30;84.90
58447;DHT22;44240;51.840;7.258;2022-07-05T00:29:29;18.20;84.90
58447;DHT22;44240;51.840;7.258;2022-07-05T00:31:55;18.20;85.10
58447;DHT22;44240;51.840;7.258;2022-07-05T00:34:20;18.20;85.40
58447;DHT22;44240;51.840;7.258;2022-07-05T00:36:46;18.20;85.70
58447;DHT22;44240;51.840;7.258;2022-07-05T00:39:13;18.20;86.00
58447;DHT22;44240;51.840;7.258;2022-07-05T00:41:38;18.10;86.30
58447;DHT22;44240;51.840;7.258;2022-07-05T00:44:10;18.20;86.60
58447;DHT22;44240;51.840;7.258;2022-07-05T00:46:37;18.20;86.80
58447;DHT22;44240;51.840;7.258;2022-07-05T00:49:04;18.20;86.80
58447;DHT22;44240;51.840;7.258;2022-07-05T00:51:31;18.20;87.00
58447;DHT22;44240;51.840;7.258;2022-07-05T00:53:57;18.20;87.30
58447;DHT22;44240;51.840;7.258;2022-07-05T00:56:24;18.20;87.40
58447;DHT22;44240;51.840;7.258;2022-07-05T00:58:50;18.20;87.40
58447;DHT22;44240;51.840;7.258;2022-07-05T01:01:17;18.20;87.60
58447;DHT22;44240;51.840;7.258;2022-07-05T01:03:43;18.20;87.60
58447;DHT22;44240;51.840;7.258;2022-07-05T01:06:10;18.20;87.90
58447;DHT22;44240;51.840;7.258;2022-07-05T01:08:39;18.20;88.20
58447;DHT22;44240;51.840;7.258;2022-07-05T01:11:06;18.20;88.30
58447;DHT22;44240;51.840;7.258;2022-07-05T01:13:32;18.10;88.30
58447;DHT22;44240;51.840;7.258;2022-07-05T01:15:58;18.10;88.40
58447;DHT22;44240;51.840;7.258;2022-07-05T01:18:24;18.00;88.60
58447;DHT22;44240;51.840;7.258;2022-07-05T01:20:51;18.00;88.70
58447;DHT22;44240;51.840;7.258;2022-07-05T01:23:18;17.90;88.90
58447;DHT22;44240;51.840;7.258;2022-07-05T01:25:45;17.90;89.30
58447;DHT22;44240;51.840;7.258;2022-07-05T01:28:11;17.80;89.30
58447;DHT22;44240;51.840;7.258;2022-07-05T01:30:39;17.80;89.50
58447;DHT22;44240;51.840;7.258;2022-07-05T01:33:06;17.70;89.80
58447;DHT22;44240;51.840;7.258;2022-07-05T01:35:33;17.70;90.00
58447;DHT22;44240;51.840;7.258;2022-07-05T01:37:59;17.70;90.20
58447;DHT22;44240;51.840;7.258;2022-07-05T01:40:25;17.70;90.30
58447;DHT22;44240;51.840;7.258;2022-07-05T01:42:51;17.70;90.40
58447;DHT22;44240;51.840;7.258;2022-07-05T01:45:17;17.70;90.50
58447;DHT22;44240;51.840;7.258;2022-07-05T01:48:02;17.70;90.50
58447;DHT22;44240;51.840;7.258;2022-07-05T01:50:32;17.70;90.60
58447;DHT22;44240;51.840;7.258;2022-07-05T01:53:01;17.70;90.60
58447;DHT22;44240;51.840;7.258;2022-07-05T01:55:28;17.60;90.80
58447;DHT22;44240;51.840;7.258;2022-07-05T01:57:54;17.50;90.70
58447;DHT22;44240;51.840;7.258;2022-07-05T02:00:20;17.50;90.80
58447;DHT22;44240;51.840;7.258;2022-07-05T02:02:46;17.40;90.90
58447;DHT22;44240;51.840;7.258;2022-07-05T02:05:12;17.40;91.00
58447;DHT22;44240;51.840;7.258;2022-07-05T02:07:49;17.40;91.00
58447;DHT22;44240;51.840;7.258;2022-07-05T02:10:15;17.40;91.10
58447;DHT22;44240;51.840;7.258;2022-07-05T02:12:41;17.30;91.10
58447;DHT22;44240;51.840;7.258;2022-07-05T02:15:07;17.30;91.20
58447;DHT22;44240;51.840;7.258;2022-07-05T02:17:33;17.30;91.30
58447;DHT22;44240;51.840;7.258;2022-07-05T02:19:58;17.30;91.40
58447;DHT22;44240;51.840;7.258;2022-07-05T02:22:25;17.20;91.40
58447;DHT22;44240;51.840;7.258;2022-07-05T02:24:51;17.20;91.50
58447;DHT22;44240;51.840;7.258;2022-07-05T02:27:16;17.10;91.50
58447;DHT22;44240;51.840;7.258;2022-07-05T02:29:42;17.10;91.60
58447;DHT22;44240;51.840;7.258;2022-07-05T02:32:08;17.00;91.70
58447;DHT22;44240;51.840;7.258;2022-07-05T02:34:33;17.00;91.80
58447;DHT22;44240;51.840;7.258;2022-07-05T02:36:59;16.90;91.90
58447;DHT22;44240;51.840;7.258;2022-07-05T02:39:24;16.90;91.90
58447;DHT22;44240;51.840;7.258;2022-07-05T02:41:50;16.90;92.00
58447;DHT22;44240;51.840;7.258;2022-07-05T02:44:15;16.90;92.20
58447;DHT22;44240;51.840;7.258;2022-07-05T02:46:41;16.90;92.30
58447;DHT22;44240;51.840;7.258;2022-07-05T02:49:06;16.80;92.60
58447;DHT22;44240;51.840;7.258;2022-07-05T02:51:32;16.80;92.40
58447;DHT22;44240;51.840;7.258;2022-07-05T02:53:57;16.80;92.50
58447;DHT22;44240;51.840;7.258;2022-07-05T02:56:23;16.70;92.50
58447;DHT22;44240;51.840;7.258;2022-07-05T02:58:48;16.70;92.60
58447;DHT22;44240;51.840;7.258;2022-07-05T03:01:14;16.70;92.70
58447;DHT22;44240;51.840;7.258;2022-07-05T03:03:39;16.60;92.70
58447;DHT22;44240;51.840;7.258;2022-07-05T03:06:05;16.60;92.80
58447;DHT22;44240;51.840;7.258;2022-07-05T03:08:30;16.60;92.90
58447;DHT22;44240;51.840;7.258;2022-07-05T03:10:56;16.50;92.90
58447;DHT22;44240;51.840;7.258;2022-07-05T03:13:21;16.50;93.00
58447;DHT22;44240;51.840;7.258;2022-07-05T03:15:47;16.50;93.10
58447;DHT22;44240;51.840;7.258;2022-07-05T03:18:12;16.40;93.10
58447;DHT22;44240;51.840;7.258;2022-07-05T03:20:38;16.40;93.20
58447;DHT22;44240;51.840;7.258;2022-07-05T03:23:03;16.40;93.30
58447;DHT22;44240;51.840;7.258;2022-07-05T03:25:29;16.40;93.30
58447;DHT22;44240;51.840;7.258;2022-07-05T03:27:54;16.30;93.30
58447;DHT22;44240;51.840;7.258;2022-07-05T03:30:20;16.30;93.40
58447;DHT22;44240;51.840;7.258;2022-07-05T03:32:45;16.30;93.40
58447;DHT22;44240;51.840;7.258;2022-07-05T03:35:11;16.30;93.50
58447;DHT22;44240;51.840;7.258;2022-07-05T03:37:37;16.20;93.60
58447;DHT22;44240;51.840;7.258;2022-07-05T03:40:03;16.20;93.70
58447;DHT22;44240;51.840;7.258;2022-07-05T03:42:29;16.20;93.80
58447;DHT22;44240;51.840;7.258;2022-07-05T03:44:54;16.10;93.90
58447;DHT22;44240;51.840;7.258;2022-07-05T03:47:20;16.10;94.00
58447;DHT22;44240;51.840;7.258;2022-07-05T03:49:46;16.10;94.10
58447;DHT22;44240;51.840;7.258;2022-07-05T03:52:11;16.10;94.20
58447;DHT22;44240;51.840;7.258;2022-07-05T03:54:37;16.10;94.30
58447;DHT22;44240;51.840;7.258;2022-07-05T03:57:03;16.00;94.30
58447;DHT22;44240;51.840;7.258;2022-07-05T03:59:28;16.10;94.50
58447;DHT22;44240;51.840;7.258;2022-07-05T04:01:54;16.10;94.50
58447;DHT22;44240;51.840;7.258;2022-07-05T04:04:19;16.10;94.50
58447;DHT22;44240;51.840;7.258;2022-07-05T04:06:45;16.10;94.60
58447;DHT22;44240;51.840;7.258;2022-07-05T04:09:10;16.10;94.60
58447;DHT22;44240;51.840;7.258;2022-07-05T04:11:36;16.00;94.70
58447;DHT22;44240;51.840;7.258;2022-07-05T04:14:01;16.00;94.80
58447;DHT22;44240;51.840;7.258;2022-07-05T04:16:27;16.00;94.80
58447;DHT22;44240;51.840;7.258;2022-07-05T04:18:52;16.00;94.90
58447;DHT22;44240;51.840;7.258;2022-07-05T04:21:18;16.00;94.90
58447;DHT22;44240;51.840;7.258;2022-07-05T04:23:43;16.00;95.00
58447;DHT22;44240;51.840;7.258;2022-07-05T04:26:09;16.00;95.10
58447;DHT22;44240;51.840;7.258;2022-07-05T04:28:35;16.00;95.10
58447;DHT22;44240;51.840;7.258;2022-07-05T04:31:01;16.00;95.10
58447;DHT22;44240;51.840;7.258;2022-07-05T04:33:26;16.00;95.20
58447;DHT22;44240;51.840;7.258;2022-07-05T04:35:52;16.00;95.30
58447;DHT22;44240;51.840;7.258;2022-07-05T04:38:18;16.00;95.40
58447;DHT22;44240;51.840;7.258;2022-07-05T04:40:43;16.00;95.50
58447;DHT22;44240;51.840;7.258;2022-07-05T04:43:09;16.10;95.50
58447;DHT22;44240;51.840;7.258;2022-07-05T04:45:35;16.10;95.50
58447;DHT22;44240;51.840;7.258;2022-07-05T04:48:01;16.10;95.60
58447;DHT22;44240;51.840;7.258;2022-07-05T04:50:26;16.20;95.70
58447;DHT22;44240;51.840;7.258;2022-07-05T04:52:53;16.20;95.70
58447;DHT22;44240;51.840;7.258;2022-07-05T04:55:18;16.30;95.70
58447;DHT22;44240;51.840;7.258;2022-07-05T04:57:44;16.40;95.70
58447;DHT22;44240;51.840;7.258;2022-07-05T05:00:12;16.40;95.70
58447;DHT22;44240;51.840;7.258;2022-07-05T05:02:38;16.50;95.80
58447;DHT22;44240;51.840;7.258;2022-07-05T05:05:03;16.60;95.80
58447;DHT22;44240;51.840;7.258;2022-07-05T05:07:29;16.70;95.80
58447;DHT22;44240;51.840;7.258;2022-07-05T05:09:55;16.70;95.80
58447;DHT22;44240;51.840;7.258;2022-07-05T05:12:21;16.80;95.90
58447;DHT22;44240;51.840;7.258;2022-07-05T05:14:47;16.90;96.00
58447;DHT22;44240;51.840;7.258;2022-07-05T05:17:12;16.90;96.10
58447;DHT22;44240;51.840;7.258;2022-07-05T05:19:38;17.10;96.10
58447;DHT22;44240;51.840;7.258;2022-07-05T05:22:03;17.10;96.10
58447;DHT22;44240;51.840;7.258;2022-07-05T05:24:29;17.10;96.20
58447;DHT22;44240;51.840;7.258;2022-07-05T05:26:55;17.20;96.10
58447;DHT22;44240;51.840;7.258;2022-07-05T05:29:20;17.20;96.00
58447;DHT22;44240;51.840;7.258;2022-07-05T05:31:47;17.30;96.10
58447;DHT22;44240;51.840;7.258;2022-07-05T05:34:12;17.30;96.10
58447;DHT22;44240;51.840;7.258;2022-07-05T05:36:38;17.40;96.50
58447;DHT22;44240;51.840;7.258;2022-07-05T05:39:04;17.50;96.20
58447;DHT22;44240;51.840;7.258;2022-07-05T05:41:29;17.60;96.20
58447;DHT22;44240;51.840;7.258;2022-07-05T05:43:55;17.70;96.20
58447;DHT22;44240;51.840;7.258;2022-07-05T05:46:21;17.80;96.10
58447;DHT22;44240;51.840;7.258;2022-07-05T05:48:46;17.90;95.80
58447;DHT22;44240;51.840;7.258;2022-07-05T05:51:13;18.00;95.40
58447;DHT22;44240;51.840;7.258;2022-07-05T05:53:38;18.00;95.40
58447;DHT22;44240;51.840;7.258;2022-07-05T05:56:04;18.00;95.30
58447;DHT22;44240;51.840;7.258;2022-07-05T05:58:30;18.10;95.30
58447;DHT22;44240;51.840;7.258;2022-07-05T06:00:55;18.10;95.20
58447;DHT22;44240;51.840;7.258;2022-07-05T06:03:23;18.30;95.40
58447;DHT22;44240;51.840;7.258;2022-07-05T06:05:50;18.30;95.60
58447;DHT22;44240;51.840;7.258;2022-07-05T06:08:15;18.50;95.80
58447;DHT22;44240;51.840;7.258;2022-07-05T06:10:42;18.60;95.50
58447;DHT22;44240;51.840;7.258;2022-07-05T06:13:09;18.60;95.20
58447;DHT22;44240;51.840;7.258;2022-07-05T06:15:37;18.60;94.50
58447;DHT22;44240;51.840;7.258;2022-07-05T06:18:03;18.70;94.40
58447;DHT22;44240;51.840;7.258;2022-07-05T06:20:33;18.70;94.50
58447;DHT22;44240;51.840;7.258;2022-07-05T06:23:00;18.80;94.40
58447;DHT22;44240;51.840;7.258;2022-07-05T06:25:26;18.90;93.70
58447;DHT22;44240;51.840;7.258;2022-07-05T06:27:53;18.90;92.90
58447;DHT22;44240;51.840;7.258;2022-07-05T06:30:20;19.00;92.80
58447;DHT22;44240;51.840;7.258;2022-07-05T06:32:47;19.10;92.70
58447;DHT22;44240;51.840;7.258;2022-07-05T06:35:13;19.10;92.80
58447;DHT22;44240;51.840;7.258;2022-07-05T06:37:53;19.20;93.00
58447;DHT22;44240;51.840;7.258;2022-07-05T06:40:27;19.40;93.10
58447;DHT22;44240;51.840;7.258;2022-07-05T06:42:55;19.50;93.10
58447;DHT22;44240;51.840;7.258;2022-07-05T06:45:21;19.60;92.90
58447;DHT22;44240;51.840;7.258;2022-07-05T06:48:19;19.60;92.70
58447;DHT22;44240;51.840;7.258;2022-07-05T06:50:44;19.80;92.40
58447;DHT22;44240;51.840;7.258;2022-07-05T06:53:10;19.80;92.20
58447;DHT22;44240;51.840;7.258;2022-07-05T06:55:37;19.90;91.90
58447;DHT22;44240;51.840;7.258;2022-07-05T06:58:04;19.90;90.60
58447;DHT22;44240;51.840;7.258;2022-07-05T07:00:30;19.90;89.80
58447;DHT22;44240;51.840;7.258;2022-07-05T07:02:57;19.90;89.50
58447;DHT22;44240;51.840;7.258;2022-07-05T07:05:23;19.90;87.90
58447;DHT22;44240;51.840;7.258;2022-07-05T07:07:49;19.90;88.60
58447;DHT22;44240;51.840;7.258;2022-07-05T07:10:34;20.00;88.10
58447;DHT22;44240;51.840;7.258;2022-07-05T07:13:00;20.10;86.10
58447;DHT22;44240;51.840;7.258;2022-07-05T07:15:26;20.10;86.40
58447;DHT22;44240;51.840;7.258;2022-07-05T07:17:52;20.20;86.20
58447;DHT22;44240;51.840;7.258;2022-07-05T07:20:18;20.20;85.50
58447;DHT22;44240;51.840;7.258;2022-07-05T07:22:43;20.20;85.90
58447;DHT22;44240;51.840;7.258;2022-07-05T07:25:09;20.20;85.00
58447;DHT22;44240;51.840;7.258;2022-07-05T07:27:51;20.30;86.00
58447;DHT22;44240;51.840;7.258;2022-07-05T07:30:19;20.50;86.50
58447;DHT22;44240;51.840;7.258;2022-07-05T07:32:45;20.70;86.50
58447;DHT22;44240;51.840;7.258;2022-07-05T07:35:11;20.90;86.00
58447;DHT22;44240;51.840;7.258;2022-07-05T07:37:37;21.20;84.90
58447;DHT22;44240;51.840;7.258;2022-07-05T07:40:06;21.30;83.30
58447;DHT22;44240;51.840;7.258;2022-07-05T07:42:33;21.30;81.80
58447;DHT22;44240;51.840;7.258;2022-07-05T07:44:58;21.30;81.40
58447;DHT22;44240;51.840;7.258;2022-07-05T07:47:24;21.30;81.40
58447;DHT22;44240;51.840;7.258;2022-07-05T07:49:50;21.40;81.80
58447;DHT22;44240;51.840;7.258;2022-07-05T07:52:16;21.40;80.80
58447;DHT22;44240;51.840;7.258;2022-07-05T07:54:41;21.40;80.30
58447;DHT22;44240;51.840;7.258;2022-07-05T07:57:07;21.30;79.90
58447;DHT22;44240;51.840;7.258;2022-07-05T07:59:33;21.30;81.10
58447;DHT22;44240;51.840;7.258;2022-07-05T08:01:59;21.40;81.80
58447;DHT22;44240;51.840;7.258;2022-07-05T08:04:25;21.50;80.60
58447;DHT22;44240;51.840;7.258;2022-07-05T08:06:50;21.60;79.20
58447;DHT22;44240;51.840;7.258;2022-07-05T08:09:16;21.60;78.80
58447;DHT22;44240;51.840;7.258;2022-07-05T08:11:42;21.80;78.90
58447;DHT22;44240;51.840;7.258;2022-07-05T08:14:08;21.80;75.00
58447;DHT22;44240;51.840;7.258;2022-07-05T08:16:34;21.80;74.00
58447;DHT22;44240;51.840;7.258;2022-07-05T08:18:59;21.90;75.20
58447;DHT22;44240;51.840;7.258;2022-07-05T08:21:44;22.10;75.40
58447;DHT22;44240;51.840;7.258;2022-07-05T08:24:13;22.20;71.30
58447;DHT22;44240;51.840;7.258;2022-07-05T08:26:40;22.20;69.20
58447;DHT22;44240;51.840;7.258;2022-07-05T08:29:08;22.30;70.00
58447;DHT22;44240;51.840;7.258;2022-07-05T08:31:40;22.40;70.60
58447;DHT22;44240;51.840;7.258;2022-07-05T08:34:06;22.60;69.30
58447;DHT22;44240;51.840;7.258;2022-07-05T08:36:32;22.70;68.50
58447;DHT22;44240;51.840;7.258;2022-07-05T08:38:57;22.80;68.20
58447;DHT22;44240;51.840;7.258;2022-07-05T08:41:23;22.90;68.30
58447;DHT22;44240;51.840;7.258;2022-07-05T08:43:50;22.90;67.20
58447;DHT22;44240;51.840;7.258;2022-07-05T08:46:17;23.00;68.00
58447;DHT22;44240;51.840;7.258;2022-07-05T08:48:46;23.20;69.00
58447;DHT22;44240;51.840;7.258;2022-07-05T08:51:20;23.30;68.80
58447;DHT22;44240;51.840;7.258;2022-07-05T08:53:47;23.60;69.30
58447;DHT22;44240;51.840;7.258;2022-07-05T08:56:13;23.60;67.40
58447;DHT22;44240;51.840;7.258;2022-07-05T08:58:40;23.60;67.50
58447;DHT22;44240;51.840;7.258;2022-07-05T09:01:07;23.70;68.30
58447;DHT22;44240;51.840;7.258;2022-07-05T09:03:41;23.80;67.70
58447;DHT22;44240;51.840;7.258;2022-07-05T09:06:09;23.80;67.40
58447;DHT22;44240;51.840;7.258;2022-07-05T09:08:39;24.00;68.20
58447;DHT22;44240;51.840;7.258;2022-07-05T09:11:10;24.10;67.50
58447;DHT22;44240;51.840;7.258;2022-07-05T09:13:38;24.20;66.70
58447;DHT22;44240;51.840;7.258;2022-07-05T09:16:05;24.30;67.10
58447;DHT22;44240;51.840;7.258;2022-07-05T09:18:48;24.40;66.80
58447;DHT22;44240;51.840;7.258;2022-07-05T09:21:21;24.50;67.30
58447;DHT22;44240;51.840;7.258;2022-07-05T09:24:13;24.60;66.50
58447;DHT22;44240;51.840;7.258;2022-07-05T09:26:46;24.80;66.40
58447;DHT22;44240;51.840;7.258;2022-07-05T09:29:20;24.80;65.40
58447;DHT22;44240;51.840;7.258;2022-07-05T09:31:49;24.70;65.00
58447;DHT22;44240;51.840;7.258;2022-07-05T09:34:17;24.50;64.60
58447;DHT22;44240;51.840;7.258;2022-07-05T09:39:16;24.10;65.80
58447;DHT22;44240;51.840;7.258;2022-07-05T09:41:41;24.00;65.10
58447;DHT22;44240;51.840;7.258;2022-07-05T09:44:07;23.80;64.70
58447;DHT22;44240;51.840;7.258;2022-07-05T09:46:33;23.80;65.40
58447;DHT22;44240;51.840;7.258;2022-07-05T09:48:58;23.90;65.40
58447;DHT22;44240;51.840;7.258;2022-07-05T09:51:25;24.00;66.00
58447;DHT22;44240;51.840;7.258;2022-07-05T09:53:55;24.30;64.90
58447;DHT22;44240;51.840;7.258;2022-07-05T09:56:21;24.40;63.70
58447;DHT22;44240;51.840;7.258;2022-07-05T09:58:47;24.60;63.70
58447;DHT22;44240;51.840;7.258;2022-07-05T10:01:29;24.80;63.10
58447;DHT22;44240;51.840;7.258;2022-07-05T10:03:56;24.90;62.50
58447;DHT22;44240;51.840;7.258;2022-07-05T10:06:24;25.10;61.80
58447;DHT22;44240;51.840;7.258;2022-07-05T10:08:50;25.30;60.60
58447;DHT22;44240;51.840;7.258;2022-07-05T10:11:17;25.10;59.50
58447;DHT22;44240;51.840;7.258;2022-07-05T10:13:48;24.80;58.30
58447;DHT22;44240;51.840;7.258;2022-07-05T10:16:15;24.50;59.00
58447;DHT22;44240;51.840;7.258;2022-07-05T10:18:41;24.20;60.40
58447;DHT22;44240;51.840;7.258;2022-07-05T10:21:12;24.10;61.40
58447;DHT22;44240;51.840;7.258;2022-07-05T10:23:38;24.10;61.70
58447;DHT22;44240;51.840;7.258;2022-07-05T10:26:08;23.90;62.20
58447;DHT22;44240;51.840;7.258;2022-07-05T10:28:34;23.80;63.10
58447;DHT22;44240;51.840;7.258;2022-07-05T10:31:01;23.70;63.90
58447;DHT22;44240;51.840;7.258;2022-07-05T10:33:28;23.60;64.10
58447;DHT22;44240;51.840;7.258;2022-07-05T10:35:54;23.60;64.10
58447;DHT22;44240;51.840;7.258;2022-07-05T10:38:21;23.60;63.80
58447;DHT22;44240;51.840;7.258;2022-07-05T10:40:51;23.60;62.90
58447;DHT22;44240;51.840;7.258;2022-07-05T10:43:21;23.70;62.80
58447;DHT22;44240;51.840;7.258;2022-07-05T10:45:48;23.70;62.50
58447;DHT22;44240;51.840;7.258;2022-07-05T10:53:27;23.80;62.30
58447;DHT22;44240;51.840;7.258;2022-07-05T10:56:13;23.80;62.30
58447;DHT22;44240;51.840;7.258;2022-07-05T10:58:47;24.00;63.00
58447;DHT22;44240;51.840;7.258;2022-07-05T11:03:42;24.10;62.80
58447;DHT22;44240;51.840;7.258;2022-07-05T11:06:08;24.10;62.90
58447;DHT22;44240;51.840;7.258;2022-07-05T11:11:28;23.80;63.60
58447;DHT22;44240;51.840;7.258;2022-07-05T11:13:55;23.60;63.50
58447;DHT22;44240;51.840;7.258;2022-07-05T11:16:24;23.50;64.10
58447;DHT22;44240;51.840;7.258;2022-07-05T11:18:52;23.50;65.00
58447;DHT22;44240;51.840;7.258;2022-07-05T11:21:22;23.50;65.20
58447;DHT22;44240;51.840;7.258;2022-07-05T11:23:48;23.60;65.10
58447;DHT22;44240;51.840;7.258;2022-07-05T11:26:16;23.70;64.80
58447;DHT22;44240;51.840;7.258;2022-07-05T11:28:47;23.60;64.70
58447;DHT22;44240;51.840;7.258;2022-07-05T11:31:39;23.60;64.40
58447;DHT22;44240;51.840;7.258;2022-07-05T11:34:14;23.60;64.00
58447;DHT22;44240;51.840;7.258;2022-07-05T11:36:42;23.60;62.90
58447;DHT22;44240;51.840;7.258;2022-07-05T11:39:13;23.50;63.20
58447;DHT22;44240;51.840;7.258;2022-07-05T11:41:47;23.50;63.10
58447;DHT22;44240;51.840;7.258;2022-07-05T11:44:13;23.60;63.40
58447;DHT22;44240;51.840;7.258;2022-07-05T11:46:40;23.60;63.80
58447;DHT22;44240;51.840;7.258;2022-07-05T11:49:07;23.60;63.30
58447;DHT22;44240;51.840;7.258;2022-07-05T11:51:33;23.40;63.40
58447;DHT22;44240;51.840;7.258;2022-07-05T11:53:58;23.40;64.10
58447;DHT22;44240;51.840;7.258;2022-07-05T11:56:24;23.40;64.10
58447;DHT22;44240;51.840;7.258;2022-07-05T11:58:49;23.40;63.90
58447;DHT22;44240;51.840;7.258;2022-07-05T12:01:15;23.30;63.00
58447;DHT22;44240;51.840;7.258;2022-07-05T12:03:51;23.40;64.70
58447;DHT22;44240;51.840;7.258;2022-07-05T12:06:17;23.40;63.30
58447;DHT22;44240;51.840;7.258;2022-07-05T12:08:42;23.50;64.10
58447;DHT22;44240;51.840;7.258;2022-07-05T12:11:12;23.60;63.90
58447;DHT22;44240;51.840;7.258;2022-07-05T12:13:56;23.80;64.00
58447;DHT22;44240;51.840;7.258;2022-07-05T12:16:21;23.90;63.50
58447;DHT22;44240;51.840;7.258;2022-07-05T12:21:17;24.00;62.30
58447;DHT22;44240;51.840;7.258;2022-07-05T12:23:45;24.00;61.90
58447;DHT22;44240;51.840;7.258;2022-07-05T12:26:12;23.90;61.30
58447;DHT22;44240;51.840;7.258;2022-07-05T12:28:40;23.80;61.40
58447;DHT22;44240;51.840;7.258;2022-07-05T12:31:16;23.80;60.90
58447;DHT22;44240;51.840;7.258;2022-07-05T12:33:41;23.80;61.40
58447;DHT22;44240;51.840;7.258;2022-07-05T12:36:11;23.80;62.30
58447;DHT22;44240;51.840;7.258;2022-07-05T12:38:37;24.00;62.10
58447;DHT22;44240;51.840;7.258;2022-07-05T12:41:03;24.10;61.70
58447;DHT22;44240;51.840;7.258;2022-07-05T12:43:29;24.10;59.90
58447;DHT22;44240;51.840;7.258;2022-07-05T12:46:06;24.10;60.30
58447;DHT22;44240;51.840;7.258;2022-07-05T12:48:37;24.20;61.10
58447;DHT22;44240;51.840;7.258;2022-07-05T12:51:04;24.30;61.30
58447;DHT22;44240;51.840;7.258;2022-07-05T12:53:30;24.30;61.20
58447;DHT22;44240;51.840;7.258;2022-07-05T12:56:14;24.40;61.50
58447;DHT22;44240;51.840;7.258;2022-07-05T12:59:01;24.50;61.40
58447;DHT22;44240;51.840;7.258;2022-07-05T13:04:03;24.70;61.10
58447;DHT22;44240;51.840;7.258;2022-07-05T13:06:57;24.80;60.70
58447;DHT22;44240;51.840;7.258;2022-07-05T13:12:19;24.90;60.70
58447;DHT22;44240;51.840;7.258;2022-07-05T13:14:51;24.80;60.60
58447;DHT22;44240;51.840;7.258;2022-07-05T13:17:21;24.70;60.40
58447;DHT22;44240;51.840;7.258;2022-07-05T13:19:49;24.60;60.40
58447;DHT22;44240;51.840;7.258;2022-07-05T13:22:14;24.50;60.50
58447;DHT22;44240;51.840;7.258;2022-07-05T13:24:41;24.50;61.00
58447;DHT22;44240;51.840;7.258;2022-07-05T13:27:09;24.50;60.50
58447;DHT22;44240;51.840;7.258;2022-07-05T13:29:35;24.40;60.50
58447;DHT22;44240;51.840;7.258;2022-07-05T13:32:00;24.50;60.00
58447;DHT22;44240;51.840;7.258;2022-07-05T13:34:26;24.50;60.20
58447;DHT22;44240;51.840;7.258;2022-07-05T13:36:53;24.60;60.60
58447;DHT22;44240;51.840;7.258;2022-07-05T13:39:20;24.70;60.60
58447;DHT22;44240;51.840;7.258;2022-07-05T13:41:53;24.80;60.30
58447;DHT22;44240;51.840;7.258;2022-07-05T13:44:20;24.70;59.80
58447;DHT22;44240;51.840;7.258;2022-07-05T13:46:46;24.70;59.80
58447;DHT22;44240;51.840;7.258;2022-07-05T13:49:12;24.70;60.00
58447;DHT22;44240;51.840;7.258;2022-07-05T13:51:37;24.80;60.40
58447;DHT22;44240;51.840;7.258;2022-07-05T13:54:03;24.80;60.00
58447;DHT22;44240;51.840;7.258;2022-07-05T13:56:29;24.80;60.10
58447;DHT22;44240;51.840;7.258;2022-07-05T13:58:55;24.70;59.50
58447;DHT22;44240;51.840;7.258;2022-07-05T14:01:21;24.60;59.90
58447;DHT22;44240;51.840;7.258;2022-07-05T14:03:52;24.60;60.70
58447;DHT22;44240;51.840;7.258;2022-07-05T14:06:18;24.60;61.00
58447;DHT22;44240;51.840;7.258;2022-07-05T14:08:43;24.70;61.10
58447;DHT22;44240;51.840;7.258;2022-07-05T14:11:09;24.70;60.60
58447;DHT22;44240;51.840;7.258;2022-07-05T14:13:36;24.60;61.10
58447;DHT22;44240;51.840;7.258;2022-07-05T14:16:02;24.60;61.00
58447;DHT22;44240;51.840;7.258;2022-07-05T14:18:28;24.50;60.80
58447;DHT22;44240;51.840;7.258;2022-07-05T14:20:53;24.50;61.10
58447;DHT22;44240;51.840;7.258;2022-07-05T14:23:19;24.40;61.20
58447;DHT22;44240;51.840;7.258;2022-07-05T14:25:44;24.30;61.00
58447;DHT22;44240;51.840;7.258;2022-07-05T14:28:11;24.20;61.40
58447;DHT22;44240;51.840;7.258;2022-07-05T14:30:38;24.10;61.60
58447;DHT22;44240;51.840;7.258;2022-07-05T14:33:04;24.10;61.70
58447;DHT22;44240;51.840;7.258;2022-07-05T14:35:30;24.00;61.90
58447;DHT22;44240;51.840;7.258;2022-07-05T14:37:57;24.00;62.20
58447;DHT22;44240;51.840;7.258;2022-07-05T14:40:22;24.00;62.50
58447;DHT22;44240;51.840;7.258;2022-07-05T14:42:54;24.10;62.60
58447;DHT22;44240;51.840;7.258;2022-07-05T14:45:20;24.30;62.80
58447;DHT22;44240;51.840;7.258;2022-07-05T14:47:47;24.40;62.80
58447;DHT22;44240;51.840;7.258;2022-07-05T14:50:13;24.70;62.90
58447;DHT22;44240;51.840;7.258;2022-07-05T14:52:40;24.90;62.40
58447;DHT22;44240;51.840;7.258;2022-07-05T14:55:05;25.00;62.10
58447;DHT22;44240;51.840;7.258;2022-07-05T14:57:31;25.00;61.30
58447;DHT22;44240;51.840;7.258;2022-07-05T14:59:57;24.80;61.70
58447;DHT22;44240;51.840;7.258;2022-07-05T15:02:22;24.70;62.10
58447;DHT22;44240;51.840;7.258;2022-07-05T15:04:48;24.60;62.40
58447;DHT22;44240;51.840;7.258;2022-07-05T15:07:14;24.50;62.80
58447;DHT22;44240;51.840;7.258;2022-07-05T15:09:40;24.40;63.20
58447;DHT22;44240;51.840;7.258;2022-07-05T15:12:05;24.30;63.10
58447;DHT22;44240;51.840;7.258;2022-07-05T15:14:31;24.20;63.50
58447;DHT22;44240;51.840;7.258;2022-07-05T15:16:57;24.10;63.80
58447;DHT22;44240;51.840;7.258;2022-07-05T15:19:22;24.00;63.80
58447;DHT22;44240;51.840;7.258;2022-07-05T15:21:48;23.90;63.30
58447;DHT22;44240;51.840;7.258;2022-07-05T15:24:15;23.80;63.50
58447;DHT22;44240;51.840;7.258;2022-07-05T15:26:41;23.70;62.90
58447;DHT22;44240;51.840;7.258;2022-07-05T15:29:08;23.50;63.30
58447;DHT22;44240;51.840;7.258;2022-07-05T15:31:35;23.40;63.30
58447;DHT22;44240;51.840;7.258;2022-07-05T15:34:02;23.40;63.40
58447;DHT22;44240;51.840;7.258;2022-07-05T15:36:28;23.30;63.40
58447;DHT22;44240;51.840;7.258;2022-07-05T15:38:58;23.30;63.60
58447;DHT22;44240;51.840;7.258;2022-07-05T15:41:24;23.30;63.60
58447;DHT22;44240;51.840;7.258;2022-07-05T15:43:49;23.20;63.70
58447;DHT22;44240;51.840;7.258;2022-07-05T15:46:15;23.20;64.00
58447;DHT22;44240;51.840;7.258;2022-07-05T15:48:41;23.30;64.00
58447;DHT22;44240;51.840;7.258;2022-07-05T15:51:07;23.30;64.00